Time;durP1;ratioP1;P1;durP2;ratioP2;P2;SDS_P1;SDS_P2;PMS_P1;PMS_P2;Temp;Humidity;BMP_temperature;BMP_pressure;BME280_temperature;BME280_humidity;BME280_pressure;Samples;Min_cycle;Max_cycle;Signal;HPM_P1;HPM_P2
2023/08/08 00:00:44;;;;;;;8.32;2.25;;;18.00;99.90;;;;;;4914531;29;20373;-85
2023/08/08 00:03:10;;;;;;;10.32;1.88;;;18.00;99.90;;;;;;4913347;29;20032;-93
2023/08/08 00:05:35;;;;;;;4.80;1.77;;;14.10;99.90;;;;;;4913843;29;20111;-85
2023/08/08 00:08:01;;;;;;;5.47;1.80;;;18.00;99.90;;;;;;4913736;29;20397;-85
2023/08/08 00:10:26;;;;;;;5.35;1.75;;;18.00;99.90;;;;;;4912354;29;20028;-85
2023/08/08 00:12:52;;;;;;;4.60;1.88;;;18.10;99.90;;;;;;4913463;29;20034;-89
2023/08/08 00:15:17;;;;;;;6.63;1.95;;;18.00;99.90;;;;;;4913450;29;20091;-86
2023/08/08 00:17:43;;;;;;;5.80;1.92;;;18.10;99.90;;;;;;4914398;29;20108;-86
2023/08/08 00:20:09;;;;;;;8.70;2.20;;;18.10;99.90;;;;;;4913201;29;20020;-87
2023/08/08 00:22:35;;;;;;;5.65;1.83;;;18.10;99.90;;;;;;4911980;29;20110;-85
2023/08/08 00:25:00;;;;;;;4.63;1.67;;;18.10;99.90;;;;;;4911583;29;20421;-84
2023/08/08 00:27:26;;;;;;;8.45;1.77;;;18.10;99.90;;;;;;4911388;29;20111;-84
2023/08/08 00:29:53;;;;;;;7.97;2.13;;;18.00;99.90;;;;;;4911746;29;20028;-85
2023/08/08 00:32:19;;;;;;;8.93;1.95;;;;;;;;;;4912950;29;20453;-84
2023/08/08 00:34:44;;;;;;;5.25;1.75;;;17.90;99.90;;;;;;4914115;29;20107;-85
2023/08/08 00:37:10;;;;;;;6.72;1.90;;;17.90;99.90;;;;;;4913146;29;20120;-85
2023/08/08 00:39:35;;;;;;;4.90;1.63;;;18.00;99.90;;;;;;4913280;29;20020;-88
2023/08/08 00:42:01;;;;;;;7.65;2.10;;;17.90;99.90;;;;;;4911639;29;20062;-84
2023/08/08 00:44:27;;;;;;;8.18;2.05;;;17.80;99.90;;;;;;4912234;29;20067;-84
2023/08/08 00:46:52;;;;;;;3.42;1.60;;;17.80;99.90;;;;;;4911863;29;20452;-84
2023/08/08 00:49:18;;;;;;;7.65;1.85;;;17.90;99.90;;;;;;4913405;29;20055;-85
2023/08/08 00:51:45;;;;;;;8.35;2.22;;;17.90;99.90;;;;;;4913851;29;20029;-84
2023/08/08 00:54:11;;;;;;;5.30;1.88;;;17.90;99.90;;;;;;4913013;29;20079;-84
2023/08/08 00:56:37;;;;;;;2.85;1.42;;;17.70;99.90;;;;;;4912364;29;20071;-86
2023/08/08 00:59:03;;;;;;;3.85;1.60;;;17.80;99.90;;;;;;4911868;29;20066;-84
2023/08/08 01:01:29;;;;;;;5.88;1.80;;;17.80;99.90;;;;;;4912545;29;20067;-84
2023/08/08 01:03:55;;;;;;;3.03;1.40;;;17.80;99.90;;;;;;4927250;29;20492;-85
2023/08/08 01:06:34;;;;;;;5.15;1.95;;;17.80;99.90;;;;;;4912473;29;20035;-84
2023/08/08 01:09:08;;;;;;;4.25;1.60;;;17.80;99.90;;;;;;4912918;29;20028;-84
2023/08/08 01:11:36;;;;;;;2.83;1.60;;;17.80;99.90;;;;;;4911463;29;20084;-85
2023/08/08 01:14:03;;;;;;;7.80;2.33;;;17.70;99.90;;;;;;4912052;29;20133;-84
2023/08/08 01:16:30;;;;;;;6.05;1.55;;;17.70;99.90;;;;;;4912328;29;20040;-85
2023/08/08 01:18:57;;;;;;;3.78;1.60;;;17.70;99.90;;;;;;4912825;29;20481;-85
2023/08/08 01:21:24;;;;;;;5.07;1.70;;;17.70;99.90;;;;;;4912410;29;20429;-93
2023/08/08 01:24:00;;;;;;;13.15;1.98;;;17.70;99.90;;;;;;4913863;29;20031;-89
2023/08/08 01:26:27;;;;;;;7.32;2.05;;;17.80;99.90;;;;;;4912312;29;20036;-86
2023/08/08 01:28:54;;;;;;;6.15;1.80;;;17.80;99.90;;;;;;4912551;29;20032;-88
2023/08/08 01:31:21;;;;;;;4.55;1.70;;;17.80;99.90;;;;;;4912745;29;20024;-84
2023/08/08 01:33:47;;;;;;;5.65;1.70;;;17.80;99.90;;;;;;4913583;29;20060;-86
2023/08/08 01:36:24;;;;;;;4.72;1.85;;;17.80;99.90;;;;;;4912077;29;20032;-86
2023/08/08 01:38:54;;;;;;;4.13;1.80;;;17.80;99.90;;;;;;4912770;29;20032;-85
2023/08/08 01:41:21;;;;;;;5.70;1.77;;;17.80;99.90;;;;;;4911659;29;20040;-85
2023/08/08 01:43:48;;;;;;;9.10;2.00;;;17.80;99.90;;;;;;4913358;29;20156;-84
2023/08/08 01:46:15;;;;;;;3.78;1.90;;;17.80;99.90;;;;;;4910872;29;20471;-86
2023/08/08 01:48:41;;;;;;;3.55;1.35;;;;;;;;;;4910986;29;20032;-84
2023/08/08 01:51:06;;;;;;;5.85;1.60;;;17.80;99.90;;;;;;4911821;29;20032;-86
2023/08/08 01:53:32;;;;;;;4.45;1.50;;;17.80;99.90;;;;;;4912560;29;20055;-85
2023/08/08 01:55:57;;;;;;;6.15;1.80;;;17.80;99.90;;;;;;4913581;29;20083;-85
2023/08/08 01:58:23;;;;;;;3.42;1.48;;;17.70;99.90;;;;;;4914765;29;20032;-85
2023/08/08 02:00:49;;;;;;;9.07;1.67;;;17.70;99.90;;;;;;4916577;29;20024;-85
2023/08/08 02:03:14;;;;;;;7.80;1.58;;;17.60;99.90;;;;;;4913758;29;20508;-87
2023/08/08 02:05:40;;;;;;;5.32;1.67;;;17.40;99.90;;;;;;4915847;29;20028;-85
2023/08/08 02:08:06;;;;;;;5.18;1.67;;;17.40;99.90;;;;;;4914449;29;20404;-85
2023/08/08 02:10:32;;;;;;;4.03;1.77;;;;;;;;;;4914377;29;20111;-85
2023/08/08 02:12:58;;;;;;;6.72;1.70;;;17.30;99.90;;;;;;4915153;29;20449;-85
2023/08/08 02:15:23;;;;;;;3.97;1.48;;;17.20;99.90;;;;;;4915803;29;20031;-84
2023/08/08 02:17:50;;;;;;;6.88;1.80;;;17.20;99.90;;;;;;4914956;29;20039;-85
2023/08/08 02:20:16;;;;;;;8.30;1.77;;;17.20;99.90;;;;;;4915560;29;20024;-86
2023/08/08 02:22:41;;;;;;;8.50;1.80;;;17.30;99.90;;;;;;4915683;29;20024;-85
2023/08/08 02:25:07;;;;;;;7.55;1.70;;;17.10;99.90;;;;;;4915115;29;20032;-86
2023/08/08 02:27:33;;;;;;;4.03;1.65;;;17.10;99.90;;;;;;4915784;29;20095;-93
2023/08/08 02:29:58;;;;;;;6.43;2.10;;;17.20;99.90;;;;;;4915528;29;20142;-84
2023/08/08 02:32:24;;;;;;;4.03;1.63;;;17.20;99.90;;;;;;4916262;29;20020;-85
2023/08/08 02:34:50;;;;;;;8.60;1.92;;;17.30;99.90;;;;;;4914284;29;20051;-87
2023/08/08 02:37:16;;;;;;;3.17;1.52;;;17.30;99.90;;;;;;4915336;29;20441;-84
2023/08/08 02:39:44;;;;;;;4.80;2.00;;;17.30;99.90;;;;;;4914427;29;20028;-85
2023/08/08 02:42:10;;;;;;;5.55;1.80;;;17.30;99.90;;;;;;4914120;29;20103;-85
2023/08/08 02:44:35;;;;;;;6.90;1.98;;;17.20;99.90;;;;;;4915511;29;20480;-84
2023/08/08 02:47:01;;;;;;;7.57;1.70;;;17.10;99.90;;;;;;4914126;29;20034;-85
2023/08/08 02:49:26;;;;;;;7.07;1.70;;;16.50;99.90;;;;;;4914309;29;20028;-84
2023/08/08 02:51:52;;;;;;;4.40;1.80;;;;;;;;;;4916123;29;20056;-85
2023/08/08 02:54:18;;;;;;;4.55;1.40;;;17.00;99.90;;;;;;4914621;29;20036;-92
2023/08/08 02:56:43;;;;;;;5.00;1.45;;;16.90;99.90;;;;;;4914655;29;20445;-92
2023/08/08 02:59:09;;;;;;;4.03;1.70;;;16.90;99.90;;;;;;4914008;29;20037;-88
2023/08/08 03:01:39;;;;;;;6.35;1.90;;;17.00;99.90;;;;;;4914860;29;20485;-84
2023/08/08 03:04:05;;;;;;;3.03;1.60;;;17.00;99.90;;;;;;4914398;29;20034;-88
2023/08/08 03:06:30;;;;;;;4.80;1.70;;;17.10;99.90;;;;;;4914565;29;20020;-84
2023/08/08 03:08:56;;;;;;;5.75;1.70;;;17.10;99.90;;;;;;4915171;29;20054;-84
2023/08/08 03:11:22;;;;;;;6.00;1.73;;;17.10;99.90;;;;;;4915154;29;20547;-86
2023/08/08 03:13:47;;;;;;;5.50;1.90;;;17.10;99.90;;;;;;4914309;29;20032;-86
2023/08/08 03:16:13;;;;;;;5.75;1.80;;;17.10;99.90;;;;;;4913909;29;20071;-84
2023/08/08 03:18:39;;;;;;;4.70;1.92;;;17.20;99.90;;;;;;4914119;29;20122;-85
2023/08/08 03:21:05;;;;;;;5.82;2.10;;;;;;;;;;4914880;29;20024;-92
2023/08/08 03:23:31;;;;;;;8.45;1.88;;;17.10;99.90;;;;;;4912914;29;20036;-92
2023/08/08 03:25:56;;;;;;;8.73;1.60;;;17.20;99.90;;;;;;4914339;29;20035;-84
2023/08/08 03:28:22;;;;;;;4.22;1.85;;;17.10;99.90;;;;;;4915396;29;20032;-84
2023/08/08 03:30:47;;;;;;;6.57;2.08;;;17.10;99.90;;;;;;4914535;29;20031;-84
2023/08/08 03:33:13;;;;;;;3.40;1.52;;;17.10;99.90;;;;;;4928959;29;20040;-92
2023/08/08 03:35:39;;;;;;;6.20;1.95;;;17.10;99.90;;;;;;4914468;29;20120;-85
2023/08/08 03:38:04;;;;;;;6.15;1.70;;;17.20;99.90;;;;;;4912953;29;20032;-85
2023/08/08 03:40:30;;;;;;;7.45;2.08;;;17.20;99.90;;;;;;4914182;29;20028;-84
2023/08/08 03:42:56;;;;;;;3.33;1.52;;;17.20;99.90;;;;;;4914186;29;20032;-84
2023/08/08 03:45:21;;;;;;;6.07;1.60;;;17.20;99.90;;;;;;4912685;29;20039;-84
2023/08/08 03:47:47;;;;;;;4.47;1.73;;;17.20;99.90;;;;;;4912965;29;20455;-83
2023/08/08 03:50:13;;;;;;;5.28;1.80;;;17.20;99.90;;;;;;4913898;29;20028;-85
2023/08/08 03:52:39;;;;;;;6.43;1.80;;;17.10;99.90;;;;;;4909057;29;20083;-85
2023/08/08 03:55:05;;;;;;;4.63;1.90;;;17.10;99.90;;;;;;4911242;29;20028;-84
2023/08/08 03:57:31;;;;;;;7.25;2.10;;;17.10;99.90;;;;;;4913228;29;20032;-84
2023/08/08 03:59:56;;;;;;;8.27;1.90;;;17.10;99.90;;;;;;4914198;29;20485;-84
2023/08/08 04:02:22;;;;;;;8.32;2.03;;;17.00;99.90;;;;;;4914406;29;20079;-87
2023/08/08 04:04:48;;;;;;;5.53;2.00;;;15.60;99.90;;;;;;4914127;29;20272;-84
2023/08/08 04:07:13;;;;;;;5.60;1.90;;;17.00;99.90;;;;;;4913180;29;20039;-83
2023/08/08 04:09:39;;;;;;;3.65;1.60;;;16.90;99.90;;;;;;4914434;29;20040;-87
2023/08/08 04:12:05;;;;;;;2.40;1.50;;;16.90;99.90;;;;;;4913691;29;20032;-85
2023/08/08 04:14:30;;;;;;;6.63;1.77;;;16.90;99.90;;;;;;4913508;29;20035;-86
2023/08/08 04:16:56;;;;;;;3.75;1.55;;;16.90;99.90;;;;;;4913563;29;20051;-85
2023/08/08 04:19:23;;;;;;;4.88;1.90;;;16.90;99.90;;;;;;4912896;29;20028;-84
2023/08/08 04:21:48;;;;;;;8.40;2.17;;;16.80;99.90;;;;;;4914111;29;20111;-88
2023/08/08 04:24:14;;;;;;;4.30;1.70;;;16.70;99.90;;;;;;4909311;29;20107;-84
2023/08/08 04:26:39;;;;;;;3.38;1.70;;;16.70;99.90;;;;;;4911453;29;20106;-83
2023/08/08 04:29:05;;;;;;;5.05;1.67;;;16.60;99.90;;;;;;4913061;29;20156;-84
2023/08/08 04:31:31;;;;;;;5.07;1.90;;;;;;;;;;4912995;29;20040;-86
2023/08/08 04:34:00;;;;;;;4.25;2.00;;;16.50;99.90;;;;;;4912401;29;20028;-87
2023/08/08 04:36:26;;;;;;;;;;;16.40;99.90;;;;;;4910989;29;20451;-87
2023/08/08 04:38:51;;;;;;;3.17;1.80;;;16.30;99.90;;;;;;4911830;29;20382;-85
2023/08/08 04:41:17;;;;;;;4.63;1.92;;;16.20;99.90;;;;;;4913604;29;20039;-86
2023/08/08 04:43:43;;;;;;;3.22;1.60;;;16.20;99.90;;;;;;4912210;29;20025;-84
2023/08/08 04:46:09;;;;;;;2.38;1.70;;;16.20;99.90;;;;;;4912265;29;20088;-89
2023/08/08 04:48:37;;;;;;;3.38;1.88;;;16.20;99.90;;;;;;4913505;29;20059;-85
2023/08/08 04:51:04;;;;;;;3.55;1.83;;;16.10;99.90;;;;;;4912919;29;20032;-86
2023/08/08 04:53:30;;;;;;;3.28;1.70;;;16.00;99.90;;;;;;4913595;29;20043;-85
2023/08/08 04:55:55;;;;;;;3.30;1.63;;;15.90;99.90;;;;;;4912777;29;20400;-85
2023/08/08 04:58:21;;;;;;;6.78;1.90;;;16.00;99.90;;;;;;4909398;29;20264;-84
2023/08/08 05:00:47;;;;;;;2.60;1.80;;;16.00;99.90;;;;;;4912063;29;20060;-85
2023/08/08 05:03:12;;;;;;;3.90;1.80;;;15.90;99.90;;;;;;4912557;29;20028;-86
2023/08/08 05:05:38;;;;;;;3.30;1.67;;;13.90;99.90;;;;;;4912558;29;20095;-89
2023/08/08 05:08:04;;;;;;;3.05;1.70;;;15.80;99.90;;;;;;4912990;29;20103;-84
2023/08/08 05:10:31;;;;;;;4.20;1.98;;;15.80;99.90;;;;;;4914249;29;20027;-91
2023/08/08 05:12:57;;;;;;;4.47;1.73;;;15.80;99.90;;;;;;4912010;29;20484;-91
2023/08/08 05:15:22;;;;;;;3.75;1.90;;;15.80;99.90;;;;;;4913653;29;20322;-84
2023/08/08 05:17:48;;;;;;;7.93;2.20;;;15.80;99.90;;;;;;4912424;29;20120;-87
2023/08/08 05:20:14;;;;;;;6.60;2.10;;;15.80;99.90;;;;;;4912570;29;20051;-82
2023/08/08 05:22:39;;;;;;;4.40;2.40;;;15.80;99.90;;;;;;4912721;29;20111;-82
2023/08/08 05:25:05;;;;;;;5.78;2.25;;;15.80;99.90;;;;;;4912715;29;20028;-85
2023/08/08 05:27:31;;;;;;;4.95;2.05;;;15.80;99.90;;;;;;4913820;29;20568;-84
2023/08/08 05:29:57;;;;;;;5.00;2.10;;;15.90;99.90;;;;;;4915147;29;20234;-85
2023/08/08 05:32:22;;;;;;;3.80;1.80;;;12.50;99.90;;;;;;4930835;29;20404;-89
2023/08/08 05:34:50;;;;;;;6.18;2.10;;;15.90;99.90;;;;;;4903195;29;20508;-90
2023/08/08 05:37:16;;;;;;;7.25;2.33;;;16.00;99.90;;;;;;4908165;29;20040;-84
2023/08/08 05:39:42;;;;;;;4.32;2.15;;;16.00;99.90;;;;;;4915388;29;20031;-86
2023/08/08 05:42:08;;;;;;;5.05;2.47;;;;;;;;;;4914739;29;20083;-85
2023/08/08 05:44:33;;;;;;;5.80;2.20;;;16.00;99.90;;;;;;4921357;29;20043;-91
2023/08/08 05:46:59;;;;;;;6.15;2.30;;;16.00;99.90;;;;;;4918290;29;20115;-91
2023/08/08 05:49:25;;;;;;;3.65;2.10;;;16.00;99.90;;;;;;4915323;29;20042;-87
2023/08/08 05:51:50;;;;;;;5.53;2.03;;;16.10;99.90;;;;;;4916368;29;20039;-87
2023/08/08 05:54:16;;;;;;;5.65;2.28;;;16.10;99.90;;;;;;4915653;29;20482;-90
2023/08/08 05:56:41;;;;;;;4.40;1.77;;;16.10;99.90;;;;;;4916116;29;20028;-91
2023/08/08 05:59:07;;;;;;;4.95;2.05;;;16.10;99.90;;;;;;4916265;29;20036;-89
2023/08/08 06:01:33;;;;;;;7.28;2.03;;;16.20;99.90;;;;;;4916971;29;20024;-87
2023/08/08 06:03:59;;;;;;;7.45;2.22;;;;;;;;;;4914314;29;20036;-87
2023/08/08 06:06:26;;;;;;;6.90;2.53;;;15.20;99.90;;;;;;4914498;29;20229;-83
2023/08/08 06:08:52;;;;;;;9.18;2.72;;;16.20;99.90;;;;;;4915954;29;20388;-88
2023/08/08 06:11:17;;;;;;;4.38;2.22;;;16.30;99.90;;;;;;4915655;29;20029;-87
2023/08/08 06:13:43;;;;;;;8.15;2.58;;;16.30;99.90;;;;;;4915422;29;20043;-88
2023/08/08 06:16:09;;;;;;;7.70;2.80;;;16.30;99.90;;;;;;4915307;29;20452;-89
2023/08/08 06:18:35;;;;;;;4.18;2.42;;;16.30;99.90;;;;;;4916775;29;20035;-89
2023/08/08 06:21:01;;;;;;;8.35;2.80;;;16.40;99.90;;;;;;4913641;29;20160;-90
2023/08/08 06:23:26;;;;;;;5.82;2.35;;;16.40;99.90;;;;;;4915708;29;20126;-89
2023/08/08 06:25:52;;;;;;;8.88;3.05;;;16.50;99.90;;;;;;4915675;29;20115;-90
2023/08/08 06:28:18;;;;;;;8.98;2.78;;;16.60;99.90;;;;;;4915600;29;20028;-89
2023/08/08 06:30:43;;;;;;;8.95;2.63;;;16.60;99.90;;;;;;4914307;29;20076;-90
2023/08/08 06:33:09;;;;;;;6.68;2.63;;;16.60;99.90;;;;;;4915527;29;20030;-89
2023/08/08 06:35:35;;;;;;;6.50;2.30;;;16.70;99.90;;;;;;4913109;29;20495;-89
2023/08/08 06:38:00;;;;;;;9.48;2.53;;;16.70;99.90;;;;;;4912923;29;20040;-88
2023/08/08 06:40:27;;;;;;;10.25;2.90;;;14.80;99.90;;;;;;4913825;29;20036;-87
2023/08/08 06:42:52;;;;;;;6.65;2.40;;;16.80;99.90;;;;;;4915019;29;20028;-83
2023/08/08 06:45:18;;;;;;;6.80;2.15;;;16.80;99.90;;;;;;4915234;29;20035;-86
2023/08/08 06:47:45;;;;;;;5.38;2.40;;;15.60;99.90;;;;;;4915219;29;20406;-87
2023/08/08 06:50:10;;;;;;;7.20;2.38;;;16.70;99.90;;;;;;4904998;29;20027;-90
2023/08/08 06:52:36;;;;;;;5.97;2.35;;;16.80;99.90;;;;;;4897177;29;20032;-88
2023/08/08 06:55:02;;;;;;;9.52;2.83;;;16.80;99.90;;;;;;4896284;29;20021;-90
2023/08/08 06:57:29;;;;;;;8.93;2.60;;;16.80;99.90;;;;;;4896071;29;20326;-89
2023/08/08 06:59:55;;;;;;;8.10;2.50;;;16.90;99.90;;;;;;4896195;29;20035;-87
2023/08/08 07:02:21;;;;;;;7.53;2.65;;;17.00;99.90;;;;;;4896140;29;20404;-90
2023/08/08 07:04:46;;;;;;;5.80;2.30;;;17.00;99.90;;;;;;4904465;29;20036;-87
2023/08/08 07:07:12;;;;;;;6.97;2.40;;;17.10;99.90;;;;;;4914922;29;20060;-87
2023/08/08 07:09:37;;;;;;;8.20;2.70;;;17.20;99.90;;;;;;4915571;29;20078;-84
2023/08/08 07:12:04;;;;;;;6.43;2.50;;;17.20;99.90;;;;;;4914747;29;20051;-88
2023/08/08 07:14:29;;;;;;;8.18;2.97;;;17.30;99.90;;;;;;4913658;29;20028;-87
2023/08/08 07:16:55;;;;;;;9.48;2.63;;;17.40;99.90;;;;;;4914609;29;20043;-86
2023/08/08 07:19:21;;;;;;;5.38;2.33;;;17.40;99.90;;;;;;4913662;29;20087;-89
2023/08/08 07:21:47;;;;;;;7.40;2.13;;;17.50;99.90;;;;;;4914609;29;20035;-87
2023/08/08 07:24:13;;;;;;;7.35;1.80;;;17.50;99.90;;;;;;4914533;29;20024;-89
2023/08/08 07:26:39;;;;;;;8.38;1.75;;;17.60;99.90;;;;;;4915376;29;20076;-90
2023/08/08 07:29:05;;;;;;;8.35;2.13;;;17.80;99.90;;;;;;4914286;29;20500;-89
2023/08/08 07:31:32;;;;;;;7.20;2.08;;;17.80;99.90;;;;;;4913418;29;20020;-88
2023/08/08 07:33:58;;;;;;;4.97;1.83;;;;;;;;;;4913557;29;20039;-89
2023/08/08 07:36:23;;;;;;;6.72;1.92;;;17.90;99.90;;;;;;4913532;29;20163;-89
2023/08/08 07:38:49;;;;;;;6.45;2.00;;;17.90;99.90;;;;;;4914322;29;20504;-85
2023/08/08 07:41:15;;;;;;;6.90;2.00;;;18.00;99.90;;;;;;4914508;29;20024;-87
2023/08/08 07:43:40;;;;;;;9.98;2.72;;;17.90;99.90;;;;;;4914297;29;20059;-88
2023/08/08 07:46:06;;;;;;;6.63;2.20;;;17.90;99.90;;;;;;4915212;29;20114;-88
2023/08/08 07:48:32;;;;;;;10.82;2.00;;;18.00;99.90;;;;;;4914161;29;20028;-89
2023/08/08 07:50:57;;;;;;;9.10;2.90;;;18.00;99.90;;;;;;4911689;29;20091;-87
2023/08/08 07:53:23;;;;;;;7.53;2.58;;;18.00;99.90;;;;;;4914041;29;20032;-88
2023/08/08 07:55:48;;;;;;;3.65;1.95;;;18.10;99.90;;;;;;4913993;29;20396;-87
2023/08/08 07:58:14;;;;;;;5.82;1.92;;;18.30;99.90;;;;;;4914021;29;20036;-89
2023/08/08 08:00:40;;;;;;;7.90;2.45;;;18.30;99.90;;;;;;4914742;29;20021;-87
2023/08/08 08:03:06;;;;;;;6.95;2.33;;;18.40;99.90;;;;;;4912595;29;20028;-89
2023/08/08 08:05:34;;;;;;;5.63;2.15;;;18.50;99.90;;;;;;4913093;29;20032;-88
2023/08/08 08:08:00;;;;;;;7.32;2.17;;;18.80;99.90;;;;;;4913822;29;20043;-91
2023/08/08 08:10:25;;;;;;;7.00;2.03;;;18.80;99.90;;;;;;4913644;29;20477;-86
2023/08/08 08:12:57;;;;;;;4.53;1.70;;;18.80;99.90;;;;;;4912567;29;20169;-88
2023/08/08 08:15:23;;;;;;;3.67;1.50;;;18.80;99.90;;;;;;4913825;29;20571;-88
2023/08/08 08:17:49;;;;;;;3.83;1.73;;;18.90;99.90;;;;;;4911275;29;20032;-89
2023/08/08 08:20:15;;;;;;;4.85;1.90;;;18.90;99.90;;;;;;4913696;29;20094;-89
2023/08/08 08:22:40;;;;;;;9.13;2.33;;;18.90;99.90;;;;;;4914447;29;20036;-87
2023/08/08 08:25:08;;;;;;;7.90;1.92;;;19.00;99.90;;;;;;4913579;29;20028;-88
2023/08/08 08:27:35;;;;;;;;;;;19.10;99.90;;;;;;4913956;29;20051;-91
2023/08/08 08:30:01;;;;;;;6.25;1.67;;;19.10;99.90;;;;;;4913588;29;19907;-90
2023/08/08 08:32:27;;;;;;;6.95;1.73;;;;;;;;;;4913509;29;20039;-85
2023/08/08 08:34:52;;;;;;;6.22;1.80;;;19.20;99.90;;;;;;4912232;29;20551;-86
2023/08/08 08:37:18;;;;;;;6.28;2.10;;;19.30;99.90;;;;;;4911986;29;20036;-87
2023/08/08 08:39:43;;;;;;;4.57;1.98;;;19.40;99.90;;;;;;4913285;29;20068;-86
2023/08/08 08:42:13;;;;;;;7.10;2.10;;;19.40;99.90;;;;;;4914165;29;20032;-88
2023/08/08 08:44:40;;;;;;;5.88;2.45;;;19.50;99.90;;;;;;4914045;29;20040;-90
2023/08/08 08:47:11;;;;;;;4.18;1.70;;;19.60;99.90;;;;;;4913330;29;20028;-87
2023/08/08 08:49:38;;;;;;;9.55;2.10;;;19.70;99.90;;;;;;4912095;29;20035;-87
2023/08/08 08:52:05;;;;;;;8.27;2.22;;;19.80;99.90;;;;;;4913129;29;20525;-89
2023/08/08 08:54:32;;;;;;;7.93;1.80;;;22.00;99.90;;;;;;4913184;29;20028;-89
2023/08/08 08:56:58;;;;;;;6.20;1.80;;;20.00;99.90;;;;;;4913044;29;20052;-87
2023/08/08 08:59:24;;;;;;;6.95;1.70;;;20.00;99.90;;;;;;4913200;29;20392;-90
2023/08/08 09:01:51;;;;;;;8.52;2.00;;;19.90;99.90;;;;;;4912900;29;20028;-87
2023/08/08 09:04:19;;;;;;;6.53;1.80;;;19.90;99.90;;;;;;4913173;29;20039;-87
2023/08/08 09:06:47;;;;;;;3.72;1.70;;;19.80;99.90;;;;;;4919621;29;20111;-83
2023/08/08 09:09:16;;;;;;;6.70;2.25;;;19.90;99.90;;;;;;4920260;29;20032;-89
2023/08/08 09:11:54;;;;;;;5.40;1.80;;;20.10;99.90;;;;;;4920196;29;20449;-88
2023/08/08 09:14:24;;;;;;;5.85;2.00;;;20.30;99.90;;;;;;4919225;29;20496;-88
2023/08/08 09:16:52;;;;;;;3.35;1.60;;;20.30;99.90;;;;;;4919139;29;20055;-89
2023/08/08 09:19:19;;;;;;;6.55;2.08;;;20.30;99.90;;;;;;4918480;29;20032;-90
2023/08/08 09:21:45;;;;;;;9.35;1.80;;;20.30;99.90;;;;;;4919983;29;20016;-88
2023/08/08 09:24:11;;;;;;;6.03;1.83;;;20.30;99.90;;;;;;4919215;29;20496;-89
2023/08/08 09:26:38;;;;;;;3.20;1.55;;;20.30;99.90;;;;;;4919130;29;20039;-88
2023/08/08 09:29:04;;;;;;;6.97;2.17;;;20.40;99.90;;;;;;4919236;29;20028;-87
2023/08/08 09:31:30;;;;;;;5.82;2.13;;;20.50;99.90;;;;;;4919331;29;20111;-89
2023/08/08 09:33:58;;;;;;;5.32;1.67;;;20.50;99.90;;;;;;4919152;29;20497;-90
2023/08/08 09:36:24;;;;;;;5.47;1.75;;;20.70;99.90;;;;;;4918509;29;20039;-90
2023/08/08 09:38:50;;;;;;;4.63;1.80;;;20.80;99.90;;;;;;4919268;29;20039;-88
2023/08/08 09:41:16;;;;;;;5.82;1.85;;;20.90;99.90;;;;;;4919927;29;20024;-90
2023/08/08 09:43:44;;;;;;;3.03;1.77;;;20.90;99.90;;;;;;4919667;29;20039;-84
2023/08/08 09:46:10;;;;;;;6.22;1.92;;;20.90;99.90;;;;;;4917781;29;20032;-90
2023/08/08 09:48:38;;;;;;;4.90;1.83;;;22.30;99.90;;;;;;4919107;29;20381;-88
2023/08/08 09:51:05;;;;;;;4.18;1.30;;;21.00;99.90;;;;;;4919010;29;20052;-88
2023/08/08 09:53:31;;;;;;;7.43;1.75;;;21.10;99.90;;;;;;4918976;29;20020;-87
2023/08/08 09:55:57;;;;;;;5.85;1.60;;;21.10;99.90;;;;;;4919016;29;20115;-90
2023/08/08 09:58:24;;;;;;;4.43;1.60;;;21.20;99.90;;;;;;4918897;29;20118;-89
2023/08/08 10:00:50;;;;;;;10.20;1.92;;;21.30;99.90;;;;;;4917140;29;20039;-90
2023/08/08 10:03:19;;;;;;;3.38;1.70;;;21.40;99.90;;;;;;4919702;29;20028;-88
2023/08/08 10:05:45;;;;;;;4.38;1.60;;;21.30;99.90;;;;;;4919757;29;20032;-89
2023/08/08 10:08:11;;;;;;;6.80;1.70;;;21.30;99.90;;;;;;4918850;29;20103;-89
2023/08/08 10:10:38;;;;;;;4.82;1.75;;;18.80;99.90;;;;;;4918751;29;20074;-87
2023/08/08 10:13:05;;;;;;;5.20;1.60;;;21.20;99.90;;;;;;4918860;29;20020;-89
2023/08/08 10:15:30;;;;;;;6.22;1.60;;;21.20;99.90;;;;;;4916272;29;20040;-89
2023/08/08 10:17:57;;;;;;;4.97;2.10;;;21.20;99.90;;;;;;4915495;29;20040;-86
2023/08/08 10:20:26;;;;;;;4.53;1.60;;;21.20;99.90;;;;;;4915831;29;20083;-89
2023/08/08 10:22:54;;;;;;;3.70;1.60;;;21.30;99.90;;;;;;4915853;29;20021;-89
2023/08/08 10:25:27;;;;;;;5.07;1.67;;;21.30;99.90;;;;;;4915699;29;20028;-87
2023/08/08 10:28:06;;;;;;;2.63;1.33;;;21.30;99.90;;;;;;4915847;29;20084;-90
2023/08/08 10:30:50;;;;;;;6.90;1.88;;;21.30;99.90;;;;;;4913730;29;20039;-89
2023/08/08 10:33:18;;;;;;;5.68;1.52;;;21.40;99.90;;;;;;4915119;29;20065;-87
2023/08/08 10:36:04;;;;;;;4.68;1.75;;;21.50;99.90;;;;;;4915617;29;20028;-88
2023/08/08 10:38:48;;;;;;;3.83;1.70;;;21.50;99.90;;;;;;4915415;29;20044;-88
2023/08/08 10:41:15;;;;;;;5.10;1.60;;;21.50;99.90;;;;;;4913546;29;20035;-89
2023/08/08 10:43:52;;;;;;;2.47;1.63;;;21.50;99.90;;;;;;4915410;29;20032;-88
2023/08/08 10:46:25;;;;;;;4.18;1.52;;;21.60;99.90;;;;;;4916290;29;20032;-89
2023/08/08 10:48:52;;;;;;;4.70;1.60;;;21.60;99.90;;;;;;4915266;29;20502;-85
2023/08/08 10:51:18;;;;;;;7.53;1.47;;;21.70;99.90;;;;;;4916195;29;20484;-88
2023/08/08 10:53:43;;;;;;;3.47;1.50;;;21.80;99.90;;;;;;4915340;29;20039;-88
2023/08/08 10:56:13;;;;;;;3.75;1.35;;;21.90;99.90;;;;;;4914014;29;20477;-87
2023/08/08 10:58:42;;;;;;;5.13;1.55;;;22.00;99.90;;;;;;4914188;29;20036;-90
2023/08/08 11:01:09;;;;;;;4.10;1.67;;;22.00;99.90;;;;;;4915137;29;20032;-89
2023/08/08 11:03:41;;;;;;;4.55;1.50;;;22.10;99.90;;;;;;4915254;29;20035;-91
2023/08/08 11:06:08;;;;;;;4.85;1.60;;;22.20;99.90;;;;;;4913075;29;20032;-87
2023/08/08 11:08:35;;;;;;;4.55;1.40;;;22.20;99.90;;;;;;4912931;29;20028;-91
2023/08/08 11:11:03;;;;;;;3.35;1.33;;;22.30;99.90;;;;;;4914988;29;20020;-92
2023/08/08 11:13:29;;;;;;;3.90;1.35;;;23.40;99.90;;;;;;4914961;29;20449;-88
2023/08/08 11:15:54;;;;;;;3.38;1.40;;;22.20;99.90;;;;;;4913534;29;20027;-89
2023/08/08 11:18:21;;;;;;;3.30;1.17;;;22.20;99.90;;;;;;4915567;29;20040;-89
2023/08/08 11:20:47;;;;;;;4.10;1.65;;;22.30;99.90;;;;;;4914159;29;20444;-88
2023/08/08 11:23:13;;;;;;;3.53;1.40;;;22.30;99.90;;;;;;4913839;29;20044;-91
2023/08/08 11:25:43;;;;;;;5.38;1.50;;;22.30;99.90;;;;;;4914590;29;20031;-91
2023/08/08 11:28:10;;;;;;;5.20;1.80;;;22.30;99.90;;;;;;4914269;29;20020;-89
2023/08/08 11:30:39;;;;;;;6.32;1.55;;;22.40;99.90;;;;;;4914624;29;20095;-89
2023/08/08 11:33:05;;;;;;;3.50;1.65;;;22.50;99.90;;;;;;4914713;29;20076;-84
2023/08/08 11:35:31;;;;;;;6.35;1.80;;;22.60;99.90;;;;;;4913169;29;20036;-88
2023/08/08 11:37:58;;;;;;;4.63;1.60;;;22.50;99.90;;;;;;4914320;29;20401;-88
2023/08/08 11:40:27;;;;;;;6.53;1.52;;;22.50;99.90;;;;;;4914246;29;20134;-86
2023/08/08 11:42:55;;;;;;;4.43;1.80;;;22.50;99.90;;;;;;4914977;29;20465;-88
2023/08/08 11:45:21;;;;;;;3.42;1.48;;;22.60;99.90;;;;;;4915110;29;20035;-89
2023/08/08 11:47:50;;;;;;;7.85;1.67;;;22.60;99.90;;;;;;4914267;29;20028;-86
2023/08/08 11:50:18;;;;;;;7.00;1.65;;;22.60;99.90;;;;;;4913200;29;20432;-89
2023/08/08 11:52:45;;;;;;;;;;;22.60;99.90;;;;;;4914473;29;20576;-86
2023/08/08 11:55:11;;;;;;;5.65;1.52;;;22.60;99.90;;;;;;4914201;29;20001;-91
2023/08/08 11:57:38;;;;;;;3.60;1.40;;;22.60;99.90;;;;;;4913091;29;20520;-90
2023/08/08 12:00:09;;;;;;;2.45;1.52;;;22.70;99.90;;;;;;4914125;29;20461;-91
2023/08/08 12:02:35;;;;;;;2.65;1.30;;;22.60;99.90;;;;;;4913926;29;20028;-89
2023/08/08 12:05:11;;;;;;;5.00;1.42;;;22.70;99.90;;;;;;4913953;29;20024;-88
2023/08/08 12:07:39;;;;;;;4.03;1.40;;;22.80;99.90;;;;;;4913921;29;20024;-89
2023/08/08 12:10:14;;;;;;;2.97;1.45;;;22.80;99.90;;;;;;4912860;29;20036;-86
2023/08/08 12:12:40;;;;;;;3.63;1.50;;;22.80;99.90;;;;;;4913100;29;20028;-91
2023/08/08 12:15:09;;;;;;;3.13;1.45;;;22.90;99.90;;;;;;4914001;29;20055;-90
2023/08/08 12:17:36;;;;;;;3.28;1.40;;;23.00;99.90;;;;;;4913718;29;20040;-89
2023/08/08 12:20:09;;;;;;;6.93;1.65;;;23.00;99.90;;;;;;4913643;29;20020;-86
2023/08/08 12:22:35;;;;;;;1.40;1.05;;;23.00;99.90;;;;;;4912442;29;20043;-90
2023/08/08 12:25:01;;;;;;;2.80;1.20;;;23.00;99.90;;;;;;4912559;29;20024;-89
2023/08/08 12:27:27;;;;;;;3.70;1.50;;;23.10;99.90;;;;;;4913462;29;20036;-88
2023/08/08 12:29:52;;;;;;;5.40;1.60;;;23.20;99.90;;;;;;4914294;29;20027;-90
2023/08/08 12:32:20;;;;;;;4.25;1.42;;;23.20;99.90;;;;;;4913570;29;20034;-88
2023/08/08 12:34:45;;;;;;;4.10;1.50;;;23.20;99.90;;;;;;4913420;29;20028;-88
2023/08/08 12:37:11;;;;;;;3.88;1.80;;;23.20;99.90;;;;;;4913564;29;20044;-85
2023/08/08 12:39:37;;;;;;;6.60;1.40;;;23.20;99.90;;;;;;4912348;29;20103;-88
2023/08/08 12:42:02;;;;;;;4.93;1.50;;;23.20;99.90;;;;;;4913245;29;20035;-90
2023/08/08 12:44:28;;;;;;;4.13;1.30;;;23.30;99.90;;;;;;4911860;29;20063;-86
2023/08/08 12:46:53;;;;;;;5.40;1.67;;;23.30;99.90;;;;;;4914147;29;20107;-89